sensor_id;sensor_type;location;lat;lon;timestamp;temperature;humidity
17202;DHT22;8717;53.588;10.176;2023-02-12T00:00:41;6.80;99.90
17202;DHT22;8717;53.588;10.176;2023-02-12T00:03:09;6.80;99.90
17202;DHT22;8717;53.588;10.176;2023-02-12T00:05:38;6.80;99.90
17202;DHT22;8717;53.588;10.176;2023-02-12T00:08:06;6.70;99.90
17202;DHT22;8717;53.588;10.176;2023-02-12T00:10:33;6.70;99.90
17202;DHT22;8717;53.588;10.176;2023-02-12T00:13:02;6.70;99.90
17202;DHT22;8717;53.588;10.176;2023-02-12T00:15:29;6.70;99.90
17202;DHT22;8717;53.588;10.176;2023-02-12T00:17:55;6.70;99.90
17202;DHT22;8717;53.588;10.176;2023-02-12T00:20:22;6.70;99.90
17202;DHT22;8717;53.588;10.176;2023-02-12T00:22:50;6.70;99.90
17202;DHT22;8717;53.588;10.176;2023-02-12T00:25:17;6.70;99.90
17202;DHT22;8717;53.588;10.176;2023-02-12T00:27:44;6.70;99.90
17202;DHT22;8717;53.588;10.176;2023-02-12T00:30:11;6.70;99.90
17202;DHT22;8717;53.588;10.176;2023-02-12T00:32:38;6.70;99.90
17202;DHT22;8717;53.588;10.176;2023-02-12T00:35:06;6.70;99.90
17202;DHT22;8717;53.588;10.176;2023-02-12T00:37:33;6.70;99.90
17202;DHT22;8717;53.588;10.176;2023-02-12T00:40:01;6.70;99.90
17202;DHT22;8717;53.588;10.176;2023-02-12T00:42:28;6.70;99.90
17202;DHT22;8717;53.588;10.176;2023-02-12T00:44:55;6.70;99.90
17202;DHT22;8717;53.588;10.176;2023-02-12T00:47:22;6.60;99.90
17202;DHT22;8717;53.588;10.176;2023-02-12T00:49:49;6.60;99.90
17202;DHT22;8717;53.588;10.176;2023-02-12T00:52:16;6.60;99.90
17202;DHT22;8717;53.588;10.176;2023-02-12T00:54:43;6.60;99.90
17202;DHT22;8717;53.588;10.176;2023-02-12T00:57:11;6.60;99.90
17202;DHT22;8717;53.588;10.176;2023-02-12T00:59:38;6.60;99.90
17202;DHT22;8717;53.588;10.176;2023-02-12T01:02:06;6.50;99.90
17202;DHT22;8717;53.588;10.176;2023-02-12T01:04:33;6.50;99.90
17202;DHT22;8717;53.588;10.176;2023-02-12T01:07:00;6.50;99.90
17202;DHT22;8717;53.588;10.176;2023-02-12T01:09:26;6.50;99.90
17202;DHT22;8717;53.588;10.176;2023-02-12T01:11:53;6.50;99.90
17202;DHT22;8717;53.588;10.176;2023-02-12T01:14:21;6.50;99.90
17202;DHT22;8717;53.588;10.176;2023-02-12T01:16:48;6.40;99.90
17202;DHT22;8717;53.588;10.176;2023-02-12T01:19:14;6.40;99.90
17202;DHT22;8717;53.588;10.176;2023-02-12T01:21:42;6.40;99.90
17202;DHT22;8717;53.588;10.176;2023-02-12T01:24:09;6.40;99.90
17202;DHT22;8717;53.588;10.176;2023-02-12T01:26:36;6.40;99.90
17202;DHT22;8717;53.588;10.176;2023-02-12T01:29:06;6.40;99.90
17202;DHT22;8717;53.588;10.176;2023-02-12T01:31:36;6.40;99.90
17202;DHT22;8717;53.588;10.176;2023-02-12T01:34:04;6.40;99.90
17202;DHT22;8717;53.588;10.176;2023-02-12T01:36:32;6.40;99.90
17202;DHT22;8717;53.588;10.176;2023-02-12T01:38:59;6.40;99.90
17202;DHT22;8717;53.588;10.176;2023-02-12T01:41:30;6.40;99.90
17202;DHT22;8717;53.588;10.176;2023-02-12T01:44:10;6.40;99.90
17202;DHT22;8717;53.588;10.176;2023-02-12T01:46:39;6.40;99.90
17202;DHT22;8717;53.588;10.176;2023-02-12T01:49:09;6.40;99.90
17202;DHT22;8717;53.588;10.176;2023-02-12T01:51:39;6.40;99.90
17202;DHT22;8717;53.588;10.176;2023-02-12T01:54:07;6.40;99.90
17202;DHT22;8717;53.588;10.176;2023-02-12T01:56:35;6.30;99.90
17202;DHT22;8717;53.588;10.176;2023-02-12T01:59:03;6.30;99.90
17202;DHT22;8717;53.588;10.176;2023-02-12T02:01:31;6.30;99.90
17202;DHT22;8717;53.588;10.176;2023-02-12T02:04:03;6.30;99.90
17202;DHT22;8717;53.588;10.176;2023-02-12T02:06:32;6.30;99.90
17202;DHT22;8717;53.588;10.176;2023-02-12T02:09:00;6.30;99.90
17202;DHT22;8717;53.588;10.176;2023-02-12T02:11:27;6.30;99.90
17202;DHT22;8717;53.588;10.176;2023-02-12T02:14:12;6.30;99.90
17202;DHT22;8717;53.588;10.176;2023-02-12T02:17:13;6.30;99.90
17202;DHT22;8717;53.588;10.176;2023-02-12T02:19:54;6.30;99.90
17202;DHT22;8717;53.588;10.176;2023-02-12T02:22:32;6.30;99.90
17202;DHT22;8717;53.588;10.176;2023-02-12T02:25:20;6.30;99.90
17202;DHT22;8717;53.588;10.176;2023-02-12T02:28:05;6.30;99.90
17202;DHT22;8717;53.588;10.176;2023-02-12T02:30:42;6.30;99.90
17202;DHT22;8717;53.588;10.176;2023-02-12T02:33:22;6.30;99.90
17202;DHT22;8717;53.588;10.176;2023-02-12T02:35:53;6.30;99.90
17202;DHT22;8717;53.588;10.176;2023-02-12T02:38:29;6.30;99.90
17202;DHT22;8717;53.588;10.176;2023-02-12T02:41:03;6.30;99.90
17202;DHT22;8717;53.588;10.176;2023-02-12T02:43:35;6.30;99.90
17202;DHT22;8717;53.588;10.176;2023-02-12T02:46:10;6.20;99.90
17202;DHT22;8717;53.588;10.176;2023-02-12T02:48:44;6.20;99.90
17202;DHT22;8717;53.588;10.176;2023-02-12T02:51:15;6.20;99.90
17202;DHT22;8717;53.588;10.176;2023-02-12T02:53:46;6.20;99.90
17202;DHT22;8717;53.588;10.176;2023-02-12T02:56:17;6.30;99.90
17202;DHT22;8717;53.588;10.176;2023-02-12T02:58:49;6.20;99.90
17202;DHT22;8717;53.588;10.176;2023-02-12T03:01:21;6.20;99.90
17202;DHT22;8717;53.588;10.176;2023-02-12T03:03:52;6.20;99.90
17202;DHT22;8717;53.588;10.176;2023-02-12T03:06:24;6.20;99.90
17202;DHT22;8717;53.588;10.176;2023-02-12T03:08:56;6.20;99.90
17202;DHT22;8717;53.588;10.176;2023-02-12T03:11:25;6.20;99.90
17202;DHT22;8717;53.588;10.176;2023-02-12T03:13:58;6.20;99.90
17202;DHT22;8717;53.588;10.176;2023-02-12T03:16:31;6.20;99.90
17202;DHT22;8717;53.588;10.176;2023-02-12T03:19:02;6.20;99.90
17202;DHT22;8717;53.588;10.176;2023-02-12T03:21:34;6.20;99.90
17202;DHT22;8717;53.588;10.176;2023-02-12T03:24:10;6.20;99.90
17202;DHT22;8717;53.588;10.176;2023-02-12T03:26:42;6.20;99.90
17202;DHT22;8717;53.588;10.176;2023-02-12T03:29:10;6.20;99.90
17202;DHT22;8717;53.588;10.176;2023-02-12T03:31:50;6.20;99.90
17202;DHT22;8717;53.588;10.176;2023-02-12T03:34:25;6.20;99.90
17202;DHT22;8717;53.588;10.176;2023-02-12T03:36:59;6.20;99.90
17202;DHT22;8717;53.588;10.176;2023-02-12T03:39:32;6.20;99.90
17202;DHT22;8717;53.588;10.176;2023-02-12T03:42:05;6.20;99.90
17202;DHT22;8717;53.588;10.176;2023-02-12T03:44:47;6.20;99.90
17202;DHT22;8717;53.588;10.176;2023-02-12T03:47:21;6.20;99.90
17202;DHT22;8717;53.588;10.176;2023-02-12T03:49:58;6.20;99.90
17202;DHT22;8717;53.588;10.176;2023-02-12T03:52:28;6.20;99.90
17202;DHT22;8717;53.588;10.176;2023-02-12T03:54:55;6.20;99.90
17202;DHT22;8717;53.588;10.176;2023-02-12T03:57:25;6.20;99.90
17202;DHT22;8717;53.588;10.176;2023-02-12T03:59:56;6.20;99.90
17202;DHT22;8717;53.588;10.176;2023-02-12T04:02:24;6.20;99.90
17202;DHT22;8717;53.588;10.176;2023-02-12T04:04:51;6.20;99.90
17202;DHT22;8717;53.588;10.176;2023-02-12T04:07:18;6.20;99.90
17202;DHT22;8717;53.588;10.176;2023-02-12T04:09:46;6.30;99.90
17202;DHT22;8717;53.588;10.176;2023-02-12T04:12:29;6.30;99.90
17202;DHT22;8717;53.588;10.176;2023-02-12T04:15:15;6.30;99.90
17202;DHT22;8717;53.588;10.176;2023-02-12T04:17:50;6.30;99.90
17202;DHT22;8717;53.588;10.176;2023-02-12T04:20:27;6.30;99.90
17202;DHT22;8717;53.588;10.176;2023-02-12T04:23:03;6.30;99.90
17202;DHT22;8717;53.588;10.176;2023-02-12T04:25:44;6.30;99.90
17202;DHT22;8717;53.588;10.176;2023-02-12T04:28:22;6.30;99.90
17202;DHT22;8717;53.588;10.176;2023-02-12T04:30:56;6.30;99.90
17202;DHT22;8717;53.588;10.176;2023-02-12T04:33:31;6.30;99.90
17202;DHT22;8717;53.588;10.176;2023-02-12T04:36:02;6.30;99.90
17202;DHT22;8717;53.588;10.176;2023-02-12T04:38:34;6.30;99.90
17202;DHT22;8717;53.588;10.176;2023-02-12T04:41:04;6.30;99.90
17202;DHT22;8717;53.588;10.176;2023-02-12T04:43:33;6.40;99.90
17202;DHT22;8717;53.588;10.176;2023-02-12T04:46:00;6.40;99.90
17202;DHT22;8717;53.588;10.176;2023-02-12T04:48:28;6.40;99.90
17202;DHT22;8717;53.588;10.176;2023-02-12T04:50:55;6.40;99.90
17202;DHT22;8717;53.588;10.176;2023-02-12T04:53:22;6.40;99.90
17202;DHT22;8717;53.588;10.176;2023-02-12T04:55:49;6.40;99.90
17202;DHT22;8717;53.588;10.176;2023-02-12T04:58:16;6.40;99.90
17202;DHT22;8717;53.588;10.176;2023-02-12T05:00:43;6.40;99.90
17202;DHT22;8717;53.588;10.176;2023-02-12T05:03:10;6.40;99.90
17202;DHT22;8717;53.588;10.176;2023-02-12T05:05:38;6.40;99.90
17202;DHT22;8717;53.588;10.176;2023-02-12T05:08:05;6.40;99.90
17202;DHT22;8717;53.588;10.176;2023-02-12T05:10:31;6.40;99.90
17202;DHT22;8717;53.588;10.176;2023-02-12T05:12:58;6.50;99.90
17202;DHT22;8717;53.588;10.176;2023-02-12T05:15:25;6.50;99.90
17202;DHT22;8717;53.588;10.176;2023-02-12T05:17:52;6.50;99.90
17202;DHT22;8717;53.588;10.176;2023-02-12T05:20:18;6.50;99.90
17202;DHT22;8717;53.588;10.176;2023-02-12T05:22:50;6.50;99.90
17202;DHT22;8717;53.588;10.176;2023-02-12T05:25:17;6.50;99.90
17202;DHT22;8717;53.588;10.176;2023-02-12T05:27:44;6.50;99.90
17202;DHT22;8717;53.588;10.176;2023-02-12T05:30:11;6.50;99.90
17202;DHT22;8717;53.588;10.176;2023-02-12T05:32:38;6.50;99.90
17202;DHT22;8717;53.588;10.176;2023-02-12T05:35:06;6.60;99.90
17202;DHT22;8717;53.588;10.176;2023-02-12T05:37:33;6.60;99.90
17202;DHT22;8717;53.588;10.176;2023-02-12T05:40:02;6.60;99.90
17202;DHT22;8717;53.588;10.176;2023-02-12T05:42:29;6.60;99.90
17202;DHT22;8717;53.588;10.176;2023-02-12T05:44:55;6.60;99.90
17202;DHT22;8717;53.588;10.176;2023-02-12T05:47:22;6.60;99.90
17202;DHT22;8717;53.588;10.176;2023-02-12T05:49:49;6.60;99.90
17202;DHT22;8717;53.588;10.176;2023-02-12T05:52:16;6.60;99.90
17202;DHT22;8717;53.588;10.176;2023-02-12T05:54:43;6.60;99.90
17202;DHT22;8717;53.588;10.176;2023-02-12T05:57:11;6.60;99.90
17202;DHT22;8717;53.588;10.176;2023-02-12T05:59:38;6.60;99.90
17202;DHT22;8717;53.588;10.176;2023-02-12T06:02:05;6.60;99.90
17202;DHT22;8717;53.588;10.176;2023-02-12T06:04:31;6.60;99.90
17202;DHT22;8717;53.588;10.176;2023-02-12T06:06:59;6.70;99.90
17202;DHT22;8717;53.588;10.176;2023-02-12T06:09:26;6.70;99.90
17202;DHT22;8717;53.588;10.176;2023-02-12T06:11:53;6.70;99.90
17202;DHT22;8717;53.588;10.176;2023-02-12T06:14:21;6.70;99.90
17202;DHT22;8717;53.588;10.176;2023-02-12T06:16:49;6.70;99.90
17202;DHT22;8717;53.588;10.176;2023-02-12T06:19:17;6.70;99.90
17202;DHT22;8717;53.588;10.176;2023-02-12T06:21:46;6.70;99.90
17202;DHT22;8717;53.588;10.176;2023-02-12T06:24:14;6.60;99.90
17202;DHT22;8717;53.588;10.176;2023-02-12T06:26:44;6.60;99.90
17202;DHT22;8717;53.588;10.176;2023-02-12T06:29:11;6.60;99.90
17202;DHT22;8717;53.588;10.176;2023-02-12T06:31:40;6.60;99.90
17202;DHT22;8717;53.588;10.176;2023-02-12T06:34:09;6.60;99.90
17202;DHT22;8717;53.588;10.176;2023-02-12T06:36:37;6.60;99.90
17202;DHT22;8717;53.588;10.176;2023-02-12T06:39:04;6.60;99.90
17202;DHT22;8717;53.588;10.176;2023-02-12T06:41:32;6.60;99.90
17202;DHT22;8717;53.588;10.176;2023-02-12T06:43:58;6.60;99.90
17202;DHT22;8717;53.588;10.176;2023-02-12T06:46:25;6.60;99.90
17202;DHT22;8717;53.588;10.176;2023-02-12T06:48:54;6.60;99.90
17202;DHT22;8717;53.588;10.176;2023-02-12T06:51:23;6.60;99.90
17202;DHT22;8717;53.588;10.176;2023-02-12T06:53:51;6.70;99.90
17202;DHT22;8717;53.588;10.176;2023-02-12T06:56:20;6.70;99.90
17202;DHT22;8717;53.588;10.176;2023-02-12T06:58:52;6.70;99.90
17202;DHT22;8717;53.588;10.176;2023-02-12T07:01:22;6.70;99.90
17202;DHT22;8717;53.588;10.176;2023-02-12T07:03:56;6.70;99.90
17202;DHT22;8717;53.588;10.176;2023-02-12T07:06:24;6.70;99.90
17202;DHT22;8717;53.588;10.176;2023-02-12T07:08:50;6.70;99.90
17202;DHT22;8717;53.588;10.176;2023-02-12T07:11:22;6.70;99.90
17202;DHT22;8717;53.588;10.176;2023-02-12T07:13:49;6.70;99.90
17202;DHT22;8717;53.588;10.176;2023-02-12T07:16:16;6.70;99.90
17202;DHT22;8717;53.588;10.176;2023-02-12T07:18:43;6.70;99.90
17202;DHT22;8717;53.588;10.176;2023-02-12T07:21:13;6.70;99.90
17202;DHT22;8717;53.588;10.176;2023-02-12T07:23:40;6.70;99.90
17202;DHT22;8717;53.588;10.176;2023-02-12T07:26:11;6.70;99.90
17202;DHT22;8717;53.588;10.176;2023-02-12T07:28:38;6.80;99.90
17202;DHT22;8717;53.588;10.176;2023-02-12T07:31:06;6.80;99.90
17202;DHT22;8717;53.588;10.176;2023-02-12T07:33:34;6.80;99.90
17202;DHT22;8717;53.588;10.176;2023-02-12T07:36:00;6.80;99.90
17202;DHT22;8717;53.588;10.176;2023-02-12T07:38:29;6.90;99.90
17202;DHT22;8717;53.588;10.176;2023-02-12T07:41:05;6.90;99.90
17202;DHT22;8717;53.588;10.176;2023-02-12T07:43:32;6.90;99.90
17202;DHT22;8717;53.588;10.176;2023-02-12T07:46:05;6.90;99.90
17202;DHT22;8717;53.588;10.176;2023-02-12T07:48:32;6.90;99.90
17202;DHT22;8717;53.588;10.176;2023-02-12T07:51:05;6.90;99.90
17202;DHT22;8717;53.588;10.176;2023-02-12T07:53:35;6.90;99.90
17202;DHT22;8717;53.588;10.176;2023-02-12T07:56:07;7.00;99.90
17202;DHT22;8717;53.588;10.176;2023-02-12T07:58:34;7.00;99.90
17202;DHT22;8717;53.588;10.176;2023-02-12T08:01:10;7.00;99.90
17202;DHT22;8717;53.588;10.176;2023-02-12T08:03:37;7.00;99.90
17202;DHT22;8717;53.588;10.176;2023-02-12T08:06:07;7.10;99.90
17202;DHT22;8717;53.588;10.176;2023-02-12T08:08:35;7.10;99.90
17202;DHT22;8717;53.588;10.176;2023-02-12T08:11:04;7.10;99.90
17202;DHT22;8717;53.588;10.176;2023-02-12T08:13:32;7.10;99.90
17202;DHT22;8717;53.588;10.176;2023-02-12T08:16:03;7.10;99.90
17202;DHT22;8717;53.588;10.176;2023-02-12T08:18:31;7.20;99.90
17202;DHT22;8717;53.588;10.176;2023-02-12T08:21:02;7.20;99.90
17202;DHT22;8717;53.588;10.176;2023-02-12T08:23:29;7.30;99.90
17202;DHT22;8717;53.588;10.176;2023-02-12T08:26:05;7.30;99.90
17202;DHT22;8717;53.588;10.176;2023-02-12T08:28:33;7.30;99.90
17202;DHT22;8717;53.588;10.176;2023-02-12T08:31:03;7.40;99.90
17202;DHT22;8717;53.588;10.176;2023-02-12T08:36:39;7.40;99.90
17202;DHT22;8717;53.588;10.176;2023-02-12T08:39:06;7.40;99.90
17202;DHT22;8717;53.588;10.176;2023-02-12T08:41:34;7.50;99.90
17202;DHT22;8717;53.588;10.176;2023-02-12T08:44:03;7.50;99.90
17202;DHT22;8717;53.588;10.176;2023-02-12T08:46:33;7.50;99.90
17202;DHT22;8717;53.588;10.176;2023-02-12T08:52:46;7.60;99.90
17202;DHT22;8717;53.588;10.176;2023-02-12T08:55:13;7.60;99.90
17202;DHT22;8717;53.588;10.176;2023-02-12T08:57:42;7.60;99.90
17202;DHT22;8717;53.588;10.176;2023-02-12T09:00:10;7.70;99.90
17202;DHT22;8717;53.588;10.176;2023-02-12T09:02:36;7.70;99.90
17202;DHT22;8717;53.588;10.176;2023-02-12T09:05:03;7.70;99.90
17202;DHT22;8717;53.588;10.176;2023-02-12T09:11:39;7.80;99.90
17202;DHT22;8717;53.588;10.176;2023-02-12T09:14:10;7.80;99.90
17202;DHT22;8717;53.588;10.176;2023-02-12T09:16:38;7.90;99.90
17202;DHT22;8717;53.588;10.176;2023-02-12T09:19:06;7.90;99.90
17202;DHT22;8717;53.588;10.176;2023-02-12T09:21:36;7.90;99.90
17202;DHT22;8717;53.588;10.176;2023-02-12T09:24:03;8.00;99.90
17202;DHT22;8717;53.588;10.176;2023-02-12T09:26:30;8.00;99.90
17202;DHT22;8717;53.588;10.176;2023-02-12T09:28:56;8.10;99.90
17202;DHT22;8717;53.588;10.176;2023-02-12T09:31:26;8.10;99.90
17202;DHT22;8717;53.588;10.176;2023-02-12T09:33:56;8.20;99.90
17202;DHT22;8717;53.588;10.176;2023-02-12T09:36:25;8.20;99.90
17202;DHT22;8717;53.588;10.176;2023-02-12T09:38:55;8.20;99.90
17202;DHT22;8717;53.588;10.176;2023-02-12T09:41:39;8.30;99.90
17202;DHT22;8717;53.588;10.176;2023-02-12T09:44:16;8.30;99.90
17202;DHT22;8717;53.588;10.176;2023-02-12T09:46:51;8.30;99.90
17202;DHT22;8717;53.588;10.176;2023-02-12T09:49:36;8.40;99.90
17202;DHT22;8717;53.588;10.176;2023-02-12T09:52:12;8.40;99.90
17202;DHT22;8717;53.588;10.176;2023-02-12T09:54:40;8.40;99.90
17202;DHT22;8717;53.588;10.176;2023-02-12T09:57:15;8.50;99.90
17202;DHT22;8717;53.588;10.176;2023-02-12T09:59:45;8.50;99.90
17202;DHT22;8717;53.588;10.176;2023-02-12T10:02:16;8.50;99.90
17202;DHT22;8717;53.588;10.176;2023-02-12T10:04:43;8.50;99.90
17202;DHT22;8717;53.588;10.176;2023-02-12T10:07:18;8.60;99.90
17202;DHT22;8717;53.588;10.176;2023-02-12T10:10:02;8.60;99.90
17202;DHT22;8717;53.588;10.176;2023-02-12T10:12:38;8.60;99.90
17202;DHT22;8717;53.588;10.176;2023-02-12T10:15:16;8.70;99.90
17202;DHT22;8717;53.588;10.176;2023-02-12T10:17:52;8.70;99.90
17202;DHT22;8717;53.588;10.176;2023-02-12T10:20:42;8.70;99.90
17202;DHT22;8717;53.588;10.176;2023-02-12T10:23:27;8.70;99.90
17202;DHT22;8717;53.588;10.176;2023-02-12T10:25:57;8.70;99.90
17202;DHT22;8717;53.588;10.176;2023-02-12T10:28:27;8.70;99.90
17202;DHT22;8717;53.588;10.176;2023-02-12T10:30:57;8.60;99.90
17202;DHT22;8717;53.588;10.176;2023-02-12T10:33:28;8.70;99.90
17202;DHT22;8717;53.588;10.176;2023-02-12T10:36:01;8.70;99.90
17202;DHT22;8717;53.588;10.176;2023-02-12T10:38:31;8.60;99.90
17202;DHT22;8717;53.588;10.176;2023-02-12T10:40:59;8.60;99.90
17202;DHT22;8717;53.588;10.176;2023-02-12T10:43:27;8.70;99.90
17202;DHT22;8717;53.588;10.176;2023-02-12T10:45:57;8.70;99.90
17202;DHT22;8717;53.588;10.176;2023-02-12T10:48:29;8.70;99.90
17202;DHT22;8717;53.588;10.176;2023-02-12T10:51:05;8.70;99.90
17202;DHT22;8717;53.588;10.176;2023-02-12T10:53:38;8.70;99.90
17202;DHT22;8717;53.588;10.176;2023-02-12T10:56:12;8.70;99.90
17202;DHT22;8717;53.588;10.176;2023-02-12T10:58:51;8.70;99.90
17202;DHT22;8717;53.588;10.176;2023-02-12T11:01:22;8.70;99.90
17202;DHT22;8717;53.588;10.176;2023-02-12T11:03:52;8.60;99.90
17202;DHT22;8717;53.588;10.176;2023-02-12T11:06:21;8.60;99.90
17202;DHT22;8717;53.588;10.176;2023-02-12T11:08:48;8.60;99.90
17202;DHT22;8717;53.588;10.176;2023-02-12T11:11:18;8.60;99.90
17202;DHT22;8717;53.588;10.176;2023-02-12T11:13:53;8.60;99.90
17202;DHT22;8717;53.588;10.176;2023-02-12T11:16:28;8.50;99.90
17202;DHT22;8717;53.588;10.176;2023-02-12T11:19:02;8.60;99.90
17202;DHT22;8717;53.588;10.176;2023-02-12T11:21:30;8.50;99.90
17202;DHT22;8717;53.588;10.176;2023-02-12T11:24:21;8.50;99.90
17202;DHT22;8717;53.588;10.176;2023-02-12T11:26:49;8.50;99.90
17202;DHT22;8717;53.588;10.176;2023-02-12T11:29:18;8.50;99.90
17202;DHT22;8717;53.588;10.176;2023-02-12T11:32:00;8.60;99.90
17202;DHT22;8717;53.588;10.176;2023-02-12T11:34:28;8.60;99.90
17202;DHT22;8717;53.588;10.176;2023-02-12T11:36:56;8.60;99.90
17202;DHT22;8717;53.588;10.176;2023-02-12T11:39:25;8.60;99.90
17202;DHT22;8717;53.588;10.176;2023-02-12T11:41:58;8.60;99.90
17202;DHT22;8717;53.588;10.176;2023-02-12T11:44:28;8.60;99.90
17202;DHT22;8717;53.588;10.176;2023-02-12T11:46:56;8.60;99.90
17202;DHT22;8717;53.588;10.176;2023-02-12T11:49:33;8.70;99.90
17202;DHT22;8717;53.588;10.176;2023-02-12T11:52:03;8.70;99.90
17202;DHT22;8717;53.588;10.176;2023-02-12T11:54:33;8.70;99.90
17202;DHT22;8717;53.588;10.176;2023-02-12T11:57:01;8.70;99.90
17202;DHT22;8717;53.588;10.176;2023-02-12T11:59:34;8.70;99.90
17202;DHT22;8717;53.588;10.176;2023-02-12T12:02:13;8.70;99.90
17202;DHT22;8717;53.588;10.176;2023-02-12T12:04:45;8.70;99.90
17202;DHT22;8717;53.588;10.176;2023-02-12T12:07:18;8.80;99.90
17202;DHT22;8717;53.588;10.176;2023-02-12T12:09:48;8.80;99.90
17202;DHT22;8717;53.588;10.176;2023-02-12T12:12:22;8.80;99.90
17202;DHT22;8717;53.588;10.176;2023-02-12T12:14:56;8.80;99.90
17202;DHT22;8717;53.588;10.176;2023-02-12T12:17:57;8.80;99.90
17202;DHT22;8717;53.588;10.176;2023-02-12T12:20:48;8.80;99.90
17202;DHT22;8717;53.588;10.176;2023-02-12T12:23:20;8.80;99.90
17202;DHT22;8717;53.588;10.176;2023-02-12T12:25:54;8.70;99.90
17202;DHT22;8717;53.588;10.176;2023-02-12T12:28:27;8.70;99.90
17202;DHT22;8717;53.588;10.176;2023-02-12T12:31:07;8.60;99.90
17202;DHT22;8717;53.588;10.176;2023-02-12T12:33:43;8.60;99.90
17202;DHT22;8717;53.588;10.176;2023-02-12T12:36:39;8.60;99.90
17202;DHT22;8717;53.588;10.176;2023-02-12T12:39:18;8.60;99.90
17202;DHT22;8717;53.588;10.176;2023-02-12T12:45:09;8.50;99.90
17202;DHT22;8717;53.588;10.176;2023-02-12T12:47:47;8.50;99.90
17202;DHT22;8717;53.588;10.176;2023-02-12T12:50:30;8.40;99.90
17202;DHT22;8717;53.588;10.176;2023-02-12T12:53:10;8.40;99.90
17202;DHT22;8717;53.588;10.176;2023-02-12T12:58:37;8.40;99.90
17202;DHT22;8717;53.588;10.176;2023-02-12T13:01:38;8.40;99.90
17202;DHT22;8717;53.588;10.176;2023-02-12T13:04:46;8.50;99.90
17202;DHT22;8717;53.588;10.176;2023-02-12T13:07:35;8.60;99.90
17202;DHT22;8717;53.588;10.176;2023-02-12T13:10:18;8.60;99.90
17202;DHT22;8717;53.588;10.176;2023-02-12T13:13:12;8.70;99.90
17202;DHT22;8717;53.588;10.176;2023-02-12T13:15:51;8.70;99.90
17202;DHT22;8717;53.588;10.176;2023-02-12T13:18:27;8.70;99.90
17202;DHT22;8717;53.588;10.176;2023-02-12T13:20:59;8.70;99.90
17202;DHT22;8717;53.588;10.176;2023-02-12T13:23:36;8.70;99.90
17202;DHT22;8717;53.588;10.176;2023-02-12T13:26:13;8.70;99.90
17202;DHT22;8717;53.588;10.176;2023-02-12T13:28:46;8.80;99.90
17202;DHT22;8717;53.588;10.176;2023-02-12T13:31:17;8.80;99.90
17202;DHT22;8717;53.588;10.176;2023-02-12T13:33:50;8.80;99.90
17202;DHT22;8717;53.588;10.176;2023-02-12T13:36:18;8.80;99.90
17202;DHT22;8717;53.588;10.176;2023-02-12T13:38:56;8.90;99.90
17202;DHT22;8717;53.588;10.176;2023-02-12T13:41:27;8.90;99.90
17202;DHT22;8717;53.588;10.176;2023-02-12T13:44:06;8.90;99.90
17202;DHT22;8717;53.588;10.176;2023-02-12T13:46:47;8.90;99.90
17202;DHT22;8717;53.588;10.176;2023-02-12T13:49:24;8.90;99.90
17202;DHT22;8717;53.588;10.176;2023-02-12T13:51:55;8.90;99.90
17202;DHT22;8717;53.588;10.176;2023-02-12T13:54:35;8.90;99.90
17202;DHT22;8717;53.588;10.176;2023-02-12T13:57:12;8.90;99.90
17202;DHT22;8717;53.588;10.176;2023-02-12T13:59:44;8.90;99.90
17202;DHT22;8717;53.588;10.176;2023-02-12T14:02:27;8.90;99.90
17202;DHT22;8717;53.588;10.176;2023-02-12T14:04:59;8.80;99.90
17202;DHT22;8717;53.588;10.176;2023-02-12T14:07:40;8.90;99.90
17202;DHT22;8717;53.588;10.176;2023-02-12T14:10:19;8.80;99.90
17202;DHT22;8717;53.588;10.176;2023-02-12T14:12:48;8.90;99.90
17202;DHT22;8717;53.588;10.176;2023-02-12T14:15:29;8.90;99.90
17202;DHT22;8717;53.588;10.176;2023-02-12T14:18:20;8.90;99.90
17202;DHT22;8717;53.588;10.176;2023-02-12T14:20:47;8.90;99.90
17202;DHT22;8717;53.588;10.176;2023-02-12T14:23:38;8.90;99.90
17202;DHT22;8717;53.588;10.176;2023-02-12T14:26:08;8.90;99.90
17202;DHT22;8717;53.588;10.176;2023-02-12T14:28:49;8.80;99.90
17202;DHT22;8717;53.588;10.176;2023-02-12T14:31:29;8.80;99.90
17202;DHT22;8717;53.588;10.176;2023-02-12T14:37:32;8.80;99.90
17202;DHT22;8717;53.588;10.176;2023-02-12T14:43:24;8.80;99.90
17202;DHT22;8717;53.588;10.176;2023-02-12T14:45:53;8.70;99.90
17202;DHT22;8717;53.588;10.176;2023-02-12T14:48:44;8.70;99.90
17202;DHT22;8717;53.588;10.176;2023-02-12T14:51:19;8.60;99.90
17202;DHT22;8717;53.588;10.176;2023-02-12T14:53:47;8.60;99.90
17202;DHT22;8717;53.588;10.176;2023-02-12T14:56:18;8.60;99.90
17202;DHT22;8717;53.588;10.176;2023-02-12T14:58:46;8.60;99.90
17202;DHT22;8717;53.588;10.176;2023-02-12T15:01:17;8.50;99.90
17202;DHT22;8717;53.588;10.176;2023-02-12T15:03:51;8.50;99.90
17202;DHT22;8717;53.588;10.176;2023-02-12T15:06:20;8.50;99.90
17202;DHT22;8717;53.588;10.176;2023-02-12T15:08:52;8.50;99.90
17202;DHT22;8717;53.588;10.176;2023-02-12T15:11:32;8.50;99.90
17202;DHT22;8717;53.588;10.176;2023-02-12T15:14:02;8.50;99.90
17202;DHT22;8717;53.588;10.176;2023-02-12T15:16:42;8.50;99.90
17202;DHT22;8717;53.588;10.176;2023-02-12T15:19:19;8.50;99.90
17202;DHT22;8717;53.588;10.176;2023-02-12T15:21:47;8.50;99.90
17202;DHT22;8717;53.588;10.176;2023-02-12T15:24:21;8.50;99.90
17202;DHT22;8717;53.588;10.176;2023-02-12T15:26:50;8.50;99.90
17202;DHT22;8717;53.588;10.176;2023-02-12T15:29:20;8.40;99.90
17202;DHT22;8717;53.588;10.176;2023-02-12T15:31:56;8.40;99.90
17202;DHT22;8717;53.588;10.176;2023-02-12T15:34:25;8.40;99.90
17202;DHT22;8717;53.588;10.176;2023-02-12T15:36:55;8.40;99.90
17202;DHT22;8717;53.588;10.176;2023-02-12T15:39:23;8.40;99.90
17202;DHT22;8717;53.588;10.176;2023-02-12T15:41:53;8.30;99.90
17202;DHT22;8717;53.588;10.176;2023-02-12T15:44:23;8.30;99.90
17202;DHT22;8717;53.588;10.176;2023-02-12T15:46:56;8.30;99.90
17202;DHT22;8717;53.588;10.176;2023-02-12T15:49:27;8.20;99.90
17202;DHT22;8717;53.588;10.176;2023-02-12T15:51:54;8.20;99.90
17202;DHT22;8717;53.588;10.176;2023-02-12T15:54:22;8.10;99.90
17202;DHT22;8717;53.588;10.176;2023-02-12T15:56:49;8.20;99.90
17202;DHT22;8717;53.588;10.176;2023-02-12T15:59:19;8.10;99.90
17202;DHT22;8717;53.588;10.176;2023-02-12T16:01:52;8.10;99.90
17202;DHT22;8717;53.588;10.176;2023-02-12T16:04:24;8.10;99.90
17202;DHT22;8717;53.588;10.176;2023-02-12T16:06:53;8.10;99.90
17202;DHT22;8717;53.588;10.176;2023-02-12T16:09:29;8.10;99.90
17202;DHT22;8717;53.588;10.176;2023-02-12T16:11:58;8.10;99.90
17202;DHT22;8717;53.588;10.176;2023-02-12T16:14:37;8.00;99.90
17202;DHT22;8717;53.588;10.176;2023-02-12T16:17:20;8.10;99.90
17202;DHT22;8717;53.588;10.176;2023-02-12T16:19:55;8.00;99.90
17202;DHT22;8717;53.588;10.176;2023-02-12T16:22:25;8.00;99.90
17202;DHT22;8717;53.588;10.176;2023-02-12T16:24:53;8.00;99.90
17202;DHT22;8717;53.588;10.176;2023-02-12T16:27:26;8.00;99.90
17202;DHT22;8717;53.588;10.176;2023-02-12T16:29:54;7.90;99.90
17202;DHT22;8717;53.588;10.176;2023-02-12T16:32:32;7.90;99.90
17202;DHT22;8717;53.588;10.176;2023-02-12T16:35:05;7.80;99.90
17202;DHT22;8717;53.588;10.176;2023-02-12T16:37:47;7.80;99.90